sensor_id;sensor_type;location;lat;lon;timestamp;temperature;humidity
40848;DHT22;26570;50.962;5.340;2022-12-15T01:02:44;-7.00;99.90
40848;DHT22;26570;50.962;5.340;2022-12-15T01:06:14;-7.10;99.90
40848;DHT22;26570;50.962;5.340;2022-12-15T01:09:18;-7.10;99.90
40848;DHT22;26570;50.962;5.340;2022-12-15T01:12:24;-7.00;99.90
40848;DHT22;26570;50.962;5.340;2022-12-15T01:15:28;-7.00;99.90
40848;DHT22;26570;50.962;5.340;2022-12-15T01:18:34;-6.90;99.90
40848;DHT22;26570;50.962;5.340;2022-12-15T01:21:38;-7.10;99.90
40848;DHT22;26570;50.962;5.340;2022-12-15T01:24:25;-7.20;99.90
40848;DHT22;26570;50.962;5.340;2022-12-15T01:27:13;-6.90;99.90
40848;DHT22;26570;50.962;5.340;2022-12-15T01:30:00;-7.10;99.90
40848;DHT22;26570;50.962;5.340;2022-12-15T01:33:09;-7.10;99.90
40848;DHT22;26570;50.962;5.340;2022-12-15T01:36:19;-7.00;99.90
40848;DHT22;26570;50.962;5.340;2022-12-15T01:39:08;-6.90;99.90
40848;DHT22;26570;50.962;5.340;2022-12-15T01:41:54;-6.80;99.90
40848;DHT22;26570;50.962;5.340;2022-12-15T01:44:40;-7.00;99.90
40848;DHT22;26570;50.962;5.340;2022-12-15T01:47:26;-7.10;99.90
40848;DHT22;26570;50.962;5.340;2022-12-15T01:50:15;-7.20;99.90
40848;DHT22;26570;50.962;5.340;2022-12-15T01:53:01;-7.20;99.90
40848;DHT22;26570;50.962;5.340;2022-12-15T01:55:50;-7.30;99.90
40848;DHT22;26570;50.962;5.340;2022-12-15T01:58:37;-7.20;99.90
40848;DHT22;26570;50.962;5.340;2022-12-15T02:01:26;-7.20;99.90
40848;DHT22;26570;50.962;5.340;2022-12-15T02:04:35;-6.80;99.90
40848;DHT22;26570;50.962;5.340;2022-12-15T02:07:44;-6.50;99.90
40848;DHT22;26570;50.962;5.340;2022-12-15T02:10:55;-6.90;99.90
40848;DHT22;26570;50.962;5.340;2022-12-15T02:14:01;-7.10;99.90
40848;DHT22;26570;50.962;5.340;2022-12-15T02:17:24;-7.20;99.90
40848;DHT22;26570;50.962;5.340;2022-12-15T02:32:18;-7.20;99.90
40848;DHT22;26570;50.962;5.340;2022-12-15T02:35:20;-7.20;99.90
40848;DHT22;26570;50.962;5.340;2022-12-15T02:38:09;-7.20;99.90
40848;DHT22;26570;50.962;5.340;2022-12-15T02:41:38;-6.80;99.90
40848;DHT22;26570;50.962;5.340;2022-12-15T02:47:38;-7.00;99.90
40848;DHT22;26570;50.962;5.340;2022-12-15T02:50:47;-7.10;99.90
40848;DHT22;26570;50.962;5.340;2022-12-15T03:00:08;-7.10;99.90
40848;DHT22;26570;50.962;5.340;2022-12-15T03:02:55;-7.10;99.90
40848;DHT22;26570;50.962;5.340;2022-12-15T03:05:43;-7.20;99.90
40848;DHT22;26570;50.962;5.340;2022-12-15T03:08:29;-5.70;99.90
40848;DHT22;26570;50.962;5.340;2022-12-15T03:11:15;-7.20;99.90
40848;DHT22;26570;50.962;5.340;2022-12-15T03:14:00;-7.00;99.90
40848;DHT22;26570;50.962;5.340;2022-12-15T03:16:49;-7.00;99.90
40848;DHT22;26570;50.962;5.340;2022-12-15T03:19:34;-7.00;99.90
40848;DHT22;26570;50.962;5.340;2022-12-15T03:22:20;-7.10;99.90
40848;DHT22;26570;50.962;5.340;2022-12-15T03:25:06;-7.20;99.90
40848;DHT22;26570;50.962;5.340;2022-12-15T03:27:51;-7.30;99.90
40848;DHT22;26570;50.962;5.340;2022-12-15T03:30:36;-7.20;99.90
40848;DHT22;26570;50.962;5.340;2022-12-15T03:33:30;-7.10;99.90
40848;DHT22;26570;50.962;5.340;2022-12-15T03:36:16;-6.90;99.90
40848;DHT22;26570;50.962;5.340;2022-12-15T03:39:24;-6.50;99.90
40848;DHT22;26570;50.962;5.340;2022-12-15T03:42:10;-6.90;99.90
40848;DHT22;26570;50.962;5.340;2022-12-15T03:45:20;-7.10;99.90
40848;DHT22;26570;50.962;5.340;2022-12-15T03:48:06;-7.30;99.90
40848;DHT22;26570;50.962;5.340;2022-12-15T03:50:52;-7.30;99.90
40848;DHT22;26570;50.962;5.340;2022-12-15T03:53:37;-7.40;99.90
40848;DHT22;26570;50.962;5.340;2022-12-15T03:56:23;-7.30;99.90
40848;DHT22;26570;50.962;5.340;2022-12-15T03:59:12;-7.30;99.90
40848;DHT22;26570;50.962;5.340;2022-12-15T04:01:57;-6.90;99.90
40848;DHT22;26570;50.962;5.340;2022-12-15T04:04:42;-7.00;99.90
40848;DHT22;26570;50.962;5.340;2022-12-15T04:07:52;-7.20;99.90
40848;DHT22;26570;50.962;5.340;2022-12-15T04:11:00;-7.30;99.90
40848;DHT22;26570;50.962;5.340;2022-12-15T04:14:09;-7.30;99.90
40848;DHT22;26570;50.962;5.340;2022-12-15T04:16:54;-7.20;99.90
40848;DHT22;26570;50.962;5.340;2022-12-15T04:19:39;-7.30;99.90
40848;DHT22;26570;50.962;5.340;2022-12-15T04:22:44;-7.30;99.90
40848;DHT22;26570;50.962;5.340;2022-12-15T04:25:31;-7.40;99.90
40848;DHT22;26570;50.962;5.340;2022-12-15T04:28:35;-7.40;99.90
40848;DHT22;26570;50.962;5.340;2022-12-15T04:31:38;-7.40;99.90
40848;DHT22;26570;50.962;5.340;2022-12-15T04:34:41;-7.40;99.90
40848;DHT22;26570;50.962;5.340;2022-12-15T04:37:45;-7.40;99.90
40848;DHT22;26570;50.962;5.340;2022-12-15T04:40:49;-7.20;99.90
40848;DHT22;26570;50.962;5.340;2022-12-15T04:43:52;-7.30;99.90
40848;DHT22;26570;50.962;5.340;2022-12-15T04:46:56;-7.40;99.90
40848;DHT22;26570;50.962;5.340;2022-12-15T04:50:01;-7.50;99.90
40848;DHT22;26570;50.962;5.340;2022-12-15T04:53:12;-7.00;99.90
40848;DHT22;26570;50.962;5.340;2022-12-15T04:56:16;-7.40;99.90
40848;DHT22;26570;50.962;5.340;2022-12-15T04:59:20;-7.50;99.90
40848;DHT22;26570;50.962;5.340;2022-12-15T05:02:24;-7.60;99.90
40848;DHT22;26570;50.962;5.340;2022-12-15T05:05:28;-7.30;99.90
40848;DHT22;26570;50.962;5.340;2022-12-15T05:08:33;-7.30;99.90
40848;DHT22;26570;50.962;5.340;2022-12-15T05:11:37;-7.30;99.90
40848;DHT22;26570;50.962;5.340;2022-12-15T05:14:40;-6.90;99.90
40848;DHT22;26570;50.962;5.340;2022-12-15T05:17:44;-7.60;99.90
40848;DHT22;26570;50.962;5.340;2022-12-15T05:20:48;-7.70;99.90
40848;DHT22;26570;50.962;5.340;2022-12-15T05:23:51;-7.70;99.90
40848;DHT22;26570;50.962;5.340;2022-12-15T05:27:18;-7.70;99.90
40848;DHT22;26570;50.962;5.340;2022-12-15T05:30:22;-7.40;99.90
40848;DHT22;26570;50.962;5.340;2022-12-15T05:33:26;-7.40;99.90
40848;DHT22;26570;50.962;5.340;2022-12-15T05:36:12;-7.10;99.90
40848;DHT22;26570;50.962;5.340;2022-12-15T05:38:57;-7.30;99.90
40848;DHT22;26570;50.962;5.340;2022-12-15T05:41:43;-7.40;99.90
40848;DHT22;26570;50.962;5.340;2022-12-15T05:44:28;-7.50;99.90
40848;DHT22;26570;50.962;5.340;2022-12-15T05:47:14;-7.50;99.90
40848;DHT22;26570;50.962;5.340;2022-12-15T05:50:22;-7.40;99.90
40848;DHT22;26570;50.962;5.340;2022-12-15T05:53:10;-7.10;99.90
40848;DHT22;26570;50.962;5.340;2022-12-15T05:56:04;-6.90;99.90
40848;DHT22;26570;50.962;5.340;2022-12-15T05:58:50;-7.20;99.90
40848;DHT22;26570;50.962;5.340;2022-12-15T06:01:36;-7.40;99.90
40848;DHT22;26570;50.962;5.340;2022-12-15T06:04:22;-7.50;99.90
40848;DHT22;26570;50.962;5.340;2022-12-15T06:07:08;-7.40;99.90
40848;DHT22;26570;50.962;5.340;2022-12-15T06:09:53;-7.10;99.90
40848;DHT22;26570;50.962;5.340;2022-12-15T06:12:39;-7.20;99.90
40848;DHT22;26570;50.962;5.340;2022-12-15T06:15:56;-7.20;99.90
40848;DHT22;26570;50.962;5.340;2022-12-15T06:18:52;-7.40;99.90
40848;DHT22;26570;50.962;5.340;2022-12-15T06:22:00;-7.20;99.90
40848;DHT22;26570;50.962;5.340;2022-12-15T06:24:46;-7.30;99.90
40848;DHT22;26570;50.962;5.340;2022-12-15T06:27:31;-6.90;99.90
40848;DHT22;26570;50.962;5.340;2022-12-15T06:30:20;-7.10;99.90
40848;DHT22;26570;50.962;5.340;2022-12-15T06:33:06;-7.20;99.90
40848;DHT22;26570;50.962;5.340;2022-12-15T06:35:51;-7.40;99.90
40848;DHT22;26570;50.962;5.340;2022-12-15T06:38:37;-7.40;99.90
40848;DHT22;26570;50.962;5.340;2022-12-15T06:41:25;-7.30;99.90
40848;DHT22;26570;50.962;5.340;2022-12-15T06:44:14;-7.20;99.90
40848;DHT22;26570;50.962;5.340;2022-12-15T06:46:59;-7.20;99.90
40848;DHT22;26570;50.962;5.340;2022-12-15T06:49:45;-7.10;99.90
40848;DHT22;26570;50.962;5.340;2022-12-15T06:52:30;-7.20;99.90
40848;DHT22;26570;50.962;5.340;2022-12-15T06:55:37;-7.20;99.90
40848;DHT22;26570;50.962;5.340;2022-12-15T06:58:22;-7.00;99.90
40848;DHT22;26570;50.962;5.340;2022-12-15T07:01:09;-7.10;99.90
40848;DHT22;26570;50.962;5.340;2022-12-15T07:03:54;-7.30;99.90
40848;DHT22;26570;50.962;5.340;2022-12-15T07:06:40;-7.30;99.90
40848;DHT22;26570;50.962;5.340;2022-12-15T07:09:26;-7.30;99.90
40848;DHT22;26570;50.962;5.340;2022-12-15T07:12:11;-7.30;99.90
40848;DHT22;26570;50.962;5.340;2022-12-15T07:14:56;-7.00;99.90
40848;DHT22;26570;50.962;5.340;2022-12-15T07:17:41;-6.50;99.90
40848;DHT22;26570;50.962;5.340;2022-12-15T07:20:30;-7.20;99.90
40848;DHT22;26570;50.962;5.340;2022-12-15T07:23:16;-7.20;99.90
40848;DHT22;26570;50.962;5.340;2022-12-15T07:26:09;-7.10;99.90
40848;DHT22;26570;50.962;5.340;2022-12-15T07:28:53;-7.00;99.90
40848;DHT22;26570;50.962;5.340;2022-12-15T07:31:40;-7.10;99.90
40848;DHT22;26570;50.962;5.340;2022-12-15T07:34:25;-7.20;99.90
40848;DHT22;26570;50.962;5.340;2022-12-15T07:37:11;-7.20;99.90
40848;DHT22;26570;50.962;5.340;2022-12-15T07:39:56;-7.10;99.90
40848;DHT22;26570;50.962;5.340;2022-12-15T07:42:42;-7.10;99.90
40848;DHT22;26570;50.962;5.340;2022-12-15T07:45:28;-6.90;99.90
40848;DHT22;26570;50.962;5.340;2022-12-15T07:48:36;-6.90;99.90
40848;DHT22;26570;50.962;5.340;2022-12-15T07:51:21;-6.50;99.90
40848;DHT22;26570;50.962;5.340;2022-12-15T07:54:09;-6.90;99.90
40848;DHT22;26570;50.962;5.340;2022-12-15T07:56:55;-7.00;99.90
40848;DHT22;26570;50.962;5.340;2022-12-15T07:59:41;-6.80;99.90
40848;DHT22;26570;50.962;5.340;2022-12-15T08:02:27;-6.80;99.90
40848;DHT22;26570;50.962;5.340;2022-12-15T08:05:13;-6.60;99.90
40848;DHT22;26570;50.962;5.340;2022-12-15T08:08:22;-6.70;99.90
40848;DHT22;26570;50.962;5.340;2022-12-15T08:11:12;-6.70;99.90
40848;DHT22;26570;50.962;5.340;2022-12-15T08:13:57;-6.80;99.90
40848;DHT22;26570;50.962;5.340;2022-12-15T08:16:44;-6.90;99.90
40848;DHT22;26570;50.962;5.340;2022-12-15T08:19:51;-6.70;99.90
40848;DHT22;26570;50.962;5.340;2022-12-15T08:22:36;-6.70;99.90
40848;DHT22;26570;50.962;5.340;2022-12-15T08:25:22;-6.60;99.90
40848;DHT22;26570;50.962;5.340;2022-12-15T08:28:12;-6.60;99.90
40848;DHT22;26570;50.962;5.340;2022-12-15T08:31:06;-6.50;99.90
40848;DHT22;26570;50.962;5.340;2022-12-15T08:33:51;-6.40;99.90
40848;DHT22;26570;50.962;5.340;2022-12-15T08:36:37;-6.30;99.90
40848;DHT22;26570;50.962;5.340;2022-12-15T08:39:22;-6.00;99.90
40848;DHT22;26570;50.962;5.340;2022-12-15T08:42:07;-5.80;99.90
40848;DHT22;26570;50.962;5.340;2022-12-15T08:44:52;-5.80;99.90
40848;DHT22;26570;50.962;5.340;2022-12-15T08:47:38;-5.90;99.90
40848;DHT22;26570;50.962;5.340;2022-12-15T08:50:46;-6.50;99.90
40848;DHT22;26570;50.962;5.340;2022-12-15T08:53:35;-5.30;99.90
40848;DHT22;26570;50.962;5.340;2022-12-15T08:56:21;-4.80;99.90
40848;DHT22;26570;50.962;5.340;2022-12-15T08:59:07;-5.00;99.90
40848;DHT22;26570;50.962;5.340;2022-12-15T09:01:53;-5.00;99.90
40848;DHT22;26570;50.962;5.340;2022-12-15T09:05:00;-5.00;99.90
40848;DHT22;26570;50.962;5.340;2022-12-15T09:07:45;-5.00;99.90
40848;DHT22;26570;50.962;5.340;2022-12-15T09:10:31;-4.90;99.90
40848;DHT22;26570;50.962;5.340;2022-12-15T09:13:16;-4.70;99.90
40848;DHT22;26570;50.962;5.340;2022-12-15T09:16:25;-4.60;99.90
40848;DHT22;26570;50.962;5.340;2022-12-15T09:19:11;-4.30;99.90
40848;DHT22;26570;50.962;5.340;2022-12-15T09:21:56;-4.30;99.90
40848;DHT22;26570;50.962;5.340;2022-12-15T09:24:42;-4.20;99.90
40848;DHT22;26570;50.962;5.340;2022-12-15T09:27:27;-4.00;99.90
40848;DHT22;26570;50.962;5.340;2022-12-15T09:30:14;-3.80;99.90
40848;DHT22;26570;50.962;5.340;2022-12-15T09:33:00;-3.60;99.90
40848;DHT22;26570;50.962;5.340;2022-12-15T09:35:50;-2.80;99.90
40848;DHT22;26570;50.962;5.340;2022-12-15T09:38:36;-3.20;99.90
40848;DHT22;26570;50.962;5.340;2022-12-15T09:41:30;-3.10;99.90
40848;DHT22;26570;50.962;5.340;2022-12-15T09:44:18;-3.00;99.90
40848;DHT22;26570;50.962;5.340;2022-12-15T09:47:51;-2.90;99.90
40848;DHT22;26570;50.962;5.340;2022-12-15T09:50:36;-2.80;99.90
40848;DHT22;26570;50.962;5.340;2022-12-15T09:53:25;-2.80;99.90
40848;DHT22;26570;50.962;5.340;2022-12-15T09:56:53;-2.90;99.90
40848;DHT22;26570;50.962;5.340;2022-12-15T10:00:09;-2.60;99.90
40848;DHT22;26570;50.962;5.340;2022-12-15T10:06:48;-2.30;99.90
40848;DHT22;26570;50.962;5.340;2022-12-15T10:09:55;-2.10;99.90
40848;DHT22;26570;50.962;5.340;2022-12-15T10:12:41;-1.70;99.90
40848;DHT22;26570;50.962;5.340;2022-12-15T10:15:29;-1.60;99.90
40848;DHT22;26570;50.962;5.340;2022-12-15T10:18:22;-1.40;99.90
40848;DHT22;26570;50.962;5.340;2022-12-15T10:21:10;-1.30;99.90
40848;DHT22;26570;50.962;5.340;2022-12-15T10:24:19;-1.20;99.90
40848;DHT22;26570;50.962;5.340;2022-12-15T10:30:11;-0.70;99.90
40848;DHT22;26570;50.962;5.340;2022-12-15T10:35:44;-0.40;99.90
40848;DHT22;26570;50.962;5.340;2022-12-15T10:38:38;-0.50;99.90
40848;DHT22;26570;50.962;5.340;2022-12-15T10:41:26;-0.30;99.90
40848;DHT22;26570;50.962;5.340;2022-12-15T10:44:24;-0.10;99.90
40848;DHT22;26570;50.962;5.340;2022-12-15T10:47:28;-0.20;99.90
40848;DHT22;26570;50.962;5.340;2022-12-15T10:50:20;0.10;99.90
40848;DHT22;26570;50.962;5.340;2022-12-15T10:53:08;0.20;99.90
40848;DHT22;26570;50.962;5.340;2022-12-15T10:55:59;0.20;99.90
40848;DHT22;26570;50.962;5.340;2022-12-15T10:58:53;0.30;99.90
40848;DHT22;26570;50.962;5.340;2022-12-15T11:01:39;0.40;99.90
40848;DHT22;26570;50.962;5.340;2022-12-15T11:04:31;0.40;99.90
40848;DHT22;26570;50.962;5.340;2022-12-15T11:07:16;0.50;99.90
40848;DHT22;26570;50.962;5.340;2022-12-15T11:10:14;0.50;99.90
40848;DHT22;26570;50.962;5.340;2022-12-15T11:13:01;0.80;99.90
40848;DHT22;26570;50.962;5.340;2022-12-15T11:15:54;1.00;99.90
40848;DHT22;26570;50.962;5.340;2022-12-15T11:18:59;1.30;99.90
40848;DHT22;26570;50.962;5.340;2022-12-15T11:21:48;1.20;99.90
40848;DHT22;26570;50.962;5.340;2022-12-15T11:24:49;1.20;99.90
40848;DHT22;26570;50.962;5.340;2022-12-15T11:27:36;1.20;99.90
40848;DHT22;26570;50.962;5.340;2022-12-15T11:30:52;1.30;99.90
40848;DHT22;26570;50.962;5.340;2022-12-15T11:33:38;1.50;99.90
40848;DHT22;26570;50.962;5.340;2022-12-15T11:36:38;1.70;99.90
40848;DHT22;26570;50.962;5.340;2022-12-15T11:39:42;1.70;99.90
40848;DHT22;26570;50.962;5.340;2022-12-15T11:58:22;2.50;99.90
40848;DHT22;26570;50.962;5.340;2022-12-15T12:08:16;2.70;99.90
40848;DHT22;26570;50.962;5.340;2022-12-15T12:11:14;2.90;99.90
40848;DHT22;26570;50.962;5.340;2022-12-15T12:14:21;3.10;99.90
40848;DHT22;26570;50.962;5.340;2022-12-15T12:17:41;2.80;99.90
40848;DHT22;26570;50.962;5.340;2022-12-15T12:21:04;3.30;99.90
40848;DHT22;26570;50.962;5.340;2022-12-15T12:24:20;3.20;99.90
40848;DHT22;26570;50.962;5.340;2022-12-15T12:27:38;3.30;99.90
40848;DHT22;26570;50.962;5.340;2022-12-15T12:30:27;3.40;99.90
40848;DHT22;26570;50.962;5.340;2022-12-15T12:33:35;3.60;99.90
40848;DHT22;26570;50.962;5.340;2022-12-15T12:36:22;3.70;99.90
40848;DHT22;26570;50.962;5.340;2022-12-15T12:39:22;3.50;99.90
40848;DHT22;26570;50.962;5.340;2022-12-15T12:42:16;3.30;99.90
40848;DHT22;26570;50.962;5.340;2022-12-15T12:46:07;3.50;99.90
40848;DHT22;26570;50.962;5.340;2022-12-15T12:52:02;3.80;99.90
40848;DHT22;26570;50.962;5.340;2022-12-15T13:01:17;3.90;99.90
40848;DHT22;26570;50.962;5.340;2022-12-15T13:07:37;3.90;99.90
40848;DHT22;26570;50.962;5.340;2022-12-15T14:17:26;4.30;99.90
40848;DHT22;26570;50.962;5.340;2022-12-15T14:20:20;4.40;99.90
40848;DHT22;26570;50.962;5.340;2022-12-15T14:26:09;4.20;99.90
40848;DHT22;26570;50.962;5.340;2022-12-15T14:29:04;4.10;99.90
40848;DHT22;26570;50.962;5.340;2022-12-15T14:32:14;4.10;99.90
40848;DHT22;26570;50.962;5.340;2022-12-15T14:34:59;4.00;99.90
40848;DHT22;26570;50.962;5.340;2022-12-15T14:37:44;3.90;99.90
40848;DHT22;26570;50.962;5.340;2022-12-15T14:40:30;4.00;99.90
40848;DHT22;26570;50.962;5.340;2022-12-15T14:43:26;3.90;99.90
40848;DHT22;26570;50.962;5.340;2022-12-15T14:46:35;3.80;99.90
40848;DHT22;26570;50.962;5.340;2022-12-15T14:49:29;3.80;99.90
40848;DHT22;26570;50.962;5.340;2022-12-15T14:52:39;3.80;99.90
40848;DHT22;26570;50.962;5.340;2022-12-15T14:58:31;3.80;99.90
40848;DHT22;26570;50.962;5.340;2022-12-15T15:01:23;3.60;99.90
40848;DHT22;26570;50.962;5.340;2022-12-15T15:04:30;3.60;99.90
40848;DHT22;26570;50.962;5.340;2022-12-15T15:07:18;3.50;99.90
40848;DHT22;26570;50.962;5.340;2022-12-15T15:10:19;3.40;99.90
40848;DHT22;26570;50.962;5.340;2022-12-15T15:13:05;3.30;99.90
40848;DHT22;26570;50.962;5.340;2022-12-15T15:15:55;3.20;99.90
40848;DHT22;26570;50.962;5.340;2022-12-15T15:18:47;3.20;99.90
40848;DHT22;26570;50.962;5.340;2022-12-15T15:21:35;2.90;99.90
40848;DHT22;26570;50.962;5.340;2022-12-15T15:24:24;3.00;99.90
40848;DHT22;26570;50.962;5.340;2022-12-15T15:30:20;2.60;99.90
40848;DHT22;26570;50.962;5.340;2022-12-15T15:33:07;2.20;99.90
40848;DHT22;26570;50.962;5.340;2022-12-15T15:35:59;2.30;99.90
40848;DHT22;26570;50.962;5.340;2022-12-15T15:38:45;1.90;99.90
40848;DHT22;26570;50.962;5.340;2022-12-15T15:41:31;1.70;99.90
40848;DHT22;26570;50.962;5.340;2022-12-15T15:44:16;1.50;99.90
40848;DHT22;26570;50.962;5.340;2022-12-15T15:47:02;1.30;99.90
40848;DHT22;26570;50.962;5.340;2022-12-15T15:49:47;1.10;99.90
40848;DHT22;26570;50.962;5.340;2022-12-15T15:52:33;1.10;99.90
40848;DHT22;26570;50.962;5.340;2022-12-15T15:55:27;0.90;99.90
40848;DHT22;26570;50.962;5.340;2022-12-15T15:58:14;0.70;99.90
40848;DHT22;26570;50.962;5.340;2022-12-15T16:01:00;0.60;99.90
40848;DHT22;26570;50.962;5.340;2022-12-15T16:03:44;0.50;99.90
40848;DHT22;26570;50.962;5.340;2022-12-15T16:06:29;0.40;99.90
40848;DHT22;26570;50.962;5.340;2022-12-15T16:09:15;0.30;99.90
40848;DHT22;26570;50.962;5.340;2022-12-15T16:12:00;0.10;99.90
40848;DHT22;26570;50.962;5.340;2022-12-15T16:14:45;0.10;99.90
40848;DHT22;26570;50.962;5.340;2022-12-15T16:17:30;0.10;99.90
40848;DHT22;26570;50.962;5.340;2022-12-15T16:20:39;-0.10;99.90
40848;DHT22;26570;50.962;5.340;2022-12-15T16:23:28;-0.20;99.90
40848;DHT22;26570;50.962;5.340;2022-12-15T16:26:16;-0.20;99.90
40848;DHT22;26570;50.962;5.340;2022-12-15T16:29:01;-0.30;99.90
40848;DHT22;26570;50.962;5.340;2022-12-15T16:31:46;-0.40;99.90
40848;DHT22;26570;50.962;5.340;2022-12-15T16:34:31;-0.40;99.90
40848;DHT22;26570;50.962;5.340;2022-12-15T16:37:25;-0.50;99.90
40848;DHT22;26570;50.962;5.340;2022-12-15T16:40:21;-0.60;99.90
40848;DHT22;26570;50.962;5.340;2022-12-15T16:43:25;-0.80;99.90
40848;DHT22;26570;50.962;5.340;2022-12-15T16:46:11;-0.90;99.90
40848;DHT22;26570;50.962;5.340;2022-12-15T16:48:56;-1.00;99.90
40848;DHT22;26570;50.962;5.340;2022-12-15T16:51:43;-1.00;99.90
40848;DHT22;26570;50.962;5.340;2022-12-15T16:54:30;-1.10;99.90
40848;DHT22;26570;50.962;5.340;2022-12-15T16:57:16;-1.20;99.90
40848;DHT22;26570;50.962;5.340;2022-12-15T17:00:05;-1.30;99.90
40848;DHT22;26570;50.962;5.340;2022-12-15T17:02:54;-1.30;99.90
40848;DHT22;26570;50.962;5.340;2022-12-15T17:05:41;-1.30;99.90
40848;DHT22;26570;50.962;5.340;2022-12-15T17:08:48;-1.20;99.90
40848;DHT22;26570;50.962;5.340;2022-12-15T17:11:35;-1.30;99.90
40848;DHT22;26570;50.962;5.340;2022-12-15T17:14:20;-0.30;99.90
40848;DHT22;26570;50.962;5.340;2022-12-15T17:17:13;-1.40;99.90
40848;DHT22;26570;50.962;5.340;2022-12-15T17:19:59;-1.50;99.90
40848;DHT22;26570;50.962;5.340;2022-12-15T17:22:46;-1.70;99.90
40848;DHT22;26570;50.962;5.340;2022-12-15T17:25:44;-1.70;99.90
40848;DHT22;26570;50.962;5.340;2022-12-15T17:28:31;-1.80;99.90
40848;DHT22;26570;50.962;5.340;2022-12-15T17:31:19;-1.90;99.90
40848;DHT22;26570;50.962;5.340;2022-12-15T17:34:27;-1.80;99.90
40848;DHT22;26570;50.962;5.340;2022-12-15T17:37:14;-1.80;99.90
40848;DHT22;26570;50.962;5.340;2022-12-15T17:40:00;-1.90;99.90
40848;DHT22;26570;50.962;5.340;2022-12-15T17:42:46;-1.80;99.90
40848;DHT22;26570;50.962;5.340;2022-12-15T17:45:31;-1.80;99.90
40848;DHT22;26570;50.962;5.340;2022-12-15T17:48:16;-1.90;99.90
40848;DHT22;26570;50.962;5.340;2022-12-15T17:51:24;-1.90;99.90
40848;DHT22;26570;50.962;5.340;2022-12-15T17:54:13;-2.10;99.90
40848;DHT22;26570;50.962;5.340;2022-12-15T17:56:59;-2.00;99.90
40848;DHT22;26570;50.962;5.340;2022-12-15T17:59:45;-2.20;99.90
40848;DHT22;26570;50.962;5.340;2022-12-15T18:02:30;-2.30;99.90
40848;DHT22;26570;50.962;5.340;2022-12-15T18:05:17;-2.40;99.90
40848;DHT22;26570;50.962;5.340;2022-12-15T18:08:22;-2.40;99.90
40848;DHT22;26570;50.962;5.340;2022-12-15T18:11:14;-2.40;99.90
40848;DHT22;26570;50.962;5.340;2022-12-15T18:13:59;-2.40;99.90
40848;DHT22;26570;50.962;5.340;2022-12-15T18:16:47;-2.20;99.90
40848;DHT22;26570;50.962;5.340;2022-12-15T18:19:32;-2.30;99.90
40848;DHT22;26570;50.962;5.340;2022-12-15T18:22:22;-2.50;99.90
40848;DHT22;26570;50.962;5.340;2022-12-15T18:25:17;-2.50;99.90
40848;DHT22;26570;50.962;5.340;2022-12-15T18:28:29;-2.50;99.90
40848;DHT22;26570;50.962;5.340;2022-12-15T18:31:35;-2.60;99.90
40848;DHT22;26570;50.962;5.340;2022-12-15T18:34:20;-2.60;99.90
40848;DHT22;26570;50.962;5.340;2022-12-15T18:37:26;-2.70;99.90
40848;DHT22;26570;50.962;5.340;2022-12-15T18:40:24;-2.70;99.90
40848;DHT22;26570;50.962;5.340;2022-12-15T18:43:17;-2.80;99.90
40848;DHT22;26570;50.962;5.340;2022-12-15T18:46:03;-2.80;99.90
40848;DHT22;26570;50.962;5.340;2022-12-15T18:48:48;-2.50;99.90
40848;DHT22;26570;50.962;5.340;2022-12-15T18:51:39;-2.80;99.90
40848;DHT22;26570;50.962;5.340;2022-12-15T18:54:25;-2.90;99.90
40848;DHT22;26570;50.962;5.340;2022-12-15T18:57:32;-3.00;99.90
40848;DHT22;26570;50.962;5.340;2022-12-15T19:00:23;-3.10;99.90
40848;DHT22;26570;50.962;5.340;2022-12-15T19:03:09;-3.10;99.90
40848;DHT22;26570;50.962;5.340;2022-12-15T19:06:05;-3.10;99.90
40848;DHT22;26570;50.962;5.340;2022-12-15T19:08:54;-3.10;99.90
40848;DHT22;26570;50.962;5.340;2022-12-15T19:11:39;-3.10;99.90
40848;DHT22;26570;50.962;5.340;2022-12-15T19:14:23;-3.70;99.90
40848;DHT22;26570;50.962;5.340;2022-12-15T19:17:24;-3.20;99.90
40848;DHT22;26570;50.962;5.340;2022-12-15T19:20:27;-3.00;99.90
40848;DHT22;26570;50.962;5.340;2022-12-15T19:23:31;-3.30;99.90
40848;DHT22;26570;50.962;5.340;2022-12-15T19:26:15;-3.40;99.90
40848;DHT22;26570;50.962;5.340;2022-12-15T19:29:23;-3.50;99.90
40848;DHT22;26570;50.962;5.340;2022-12-15T19:32:08;-3.60;99.90
40848;DHT22;26570;50.962;5.340;2022-12-15T19:35:15;-3.60;99.90
40848;DHT22;26570;50.962;5.340;2022-12-15T19:38:02;-2.80;99.90
40848;DHT22;26570;50.962;5.340;2022-12-15T19:40:49;-3.60;99.90
40848;DHT22;26570;50.962;5.340;2022-12-15T19:43:36;-3.70;99.90
40848;DHT22;26570;50.962;5.340;2022-12-15T19:46:22;-3.70;99.90
40848;DHT22;26570;50.962;5.340;2022-12-15T19:49:07;-3.80;99.90
40848;DHT22;26570;50.962;5.340;2022-12-15T19:52:16;-3.90;99.90
40848;DHT22;26570;50.962;5.340;2022-12-15T19:55:01;-4.10;99.90
40848;DHT22;26570;50.962;5.340;2022-12-15T19:57:46;-4.10;99.90
40848;DHT22;26570;50.962;5.340;2022-12-15T20:01:04;-4.10;99.90
40848;DHT22;26570;50.962;5.340;2022-12-15T20:03:51;-4.20;99.90
40848;DHT22;26570;50.962;5.340;2022-12-15T20:06:37;-4.30;99.90
40848;DHT22;26570;50.962;5.340;2022-12-15T20:09:22;-4.30;99.90
40848;DHT22;26570;50.962;5.340;2022-12-15T20:12:30;-4.30;99.90
40848;DHT22;26570;50.962;5.340;2022-12-15T20:15:19;-4.00;99.90
40848;DHT22;26570;50.962;5.340;2022-12-15T20:18:05;-3.80;99.90
40848;DHT22;26570;50.962;5.340;2022-12-15T20:20:50;-4.10;99.90
40848;DHT22;26570;50.962;5.340;2022-12-15T20:23:50;-4.20;99.90
40848;DHT22;26570;50.962;5.340;2022-12-15T20:26:37;-4.30;99.90
40848;DHT22;26570;50.962;5.340;2022-12-15T20:29:45;-4.30;99.90
40848;DHT22;26570;50.962;5.340;2022-12-15T20:32:30;-4.40;99.90
40848;DHT22;26570;50.962;5.340;2022-12-15T20:35:16;-3.90;99.90
40848;DHT22;26570;50.962;5.340;2022-12-15T20:38:13;-4.70;99.90
40848;DHT22;26570;50.962;5.340;2022-12-15T20:41:01;-4.70;99.90
40848;DHT22;26570;50.962;5.340;2022-12-15T20:44:11;-4.50;99.90
40848;DHT22;26570;50.962;5.340;2022-12-15T20:47:22;-4.50;99.90
40848;DHT22;26570;50.962;5.340;2022-12-15T20:50:32;-4.50;99.90
40848;DHT22;26570;50.962;5.340;2022-12-15T20:53:24;-4.50;99.90
40848;DHT22;26570;50.962;5.340;2022-12-15T20:56:09;-4.70;99.90
40848;DHT22;26570;50.962;5.340;2022-12-15T20:58:56;-4.80;99.90
40848;DHT22;26570;50.962;5.340;2022-12-15T21:01:42;-4.80;99.90
40848;DHT22;26570;50.962;5.340;2022-12-15T21:04:29;-5.00;99.90
40848;DHT22;26570;50.962;5.340;2022-12-15T21:07:15;-5.00;99.90
40848;DHT22;26570;50.962;5.340;2022-12-15T21:10:00;-5.00;99.90
40848;DHT22;26570;50.962;5.340;2022-12-15T21:12:47;-5.20;99.90
40848;DHT22;26570;50.962;5.340;2022-12-15T21:15:33;-5.10;99.90
40848;DHT22;26570;50.962;5.340;2022-12-15T21:18:18;-4.90;99.90
40848;DHT22;26570;50.962;5.340;2022-12-15T21:21:08;-4.90;99.90
40848;DHT22;26570;50.962;5.340;2022-12-15T21:24:14;-4.70;99.90
40848;DHT22;26570;50.962;5.340;2022-12-15T21:27:00;-4.30;99.90
40848;DHT22;26570;50.962;5.340;2022-12-15T21:30:18;-4.60;99.90
40848;DHT22;26570;50.962;5.340;2022-12-15T21:33:07;-5.10;99.90
40848;DHT22;26570;50.962;5.340;2022-12-15T21:35:52;-5.30;99.90
40848;DHT22;26570;50.962;5.340;2022-12-15T21:38:39;-5.50;99.90
40848;DHT22;26570;50.962;5.340;2022-12-15T21:41:24;-5.10;99.90
40848;DHT22;26570;50.962;5.340;2022-12-15T21:44:13;-5.40;99.90